createdAt,value
2022-08-18T00:04:50.257Z,100964.69
2022-08-18T00:09:58.850Z,100961.13
2022-08-18T00:15:04.214Z,100958.44
2022-08-18T00:20:09.263Z,100956.75
2022-08-18T00:25:13.350Z,100959.34
2022-08-18T00:30:19.200Z,100956.72
2022-08-18T00:35:28.938Z,100961.94
2022-08-18T00:40:38.151Z,100965.47
2022-08-18T00:45:43.216Z,100977.75
2022-08-18T00:50:57.676Z,100974.16
2022-08-18T00:56:04.816Z,100975.91
2022-08-18T01:01:08.695Z,100975.09
2022-08-18T01:06:17.300Z,100972.38
2022-08-18T01:11:18.901Z,100968.00
2022-08-18T01:16:40.396Z,100977.69
2022-08-18T01:22:08.501Z,100975.09
2022-08-18T01:27:12.698Z,100974.25
2022-08-18T01:32:20.424Z,100971.63
2022-08-18T01:37:23.967Z,100971.63
2022-08-18T01:42:25.578Z,100981.38
2022-08-18T01:47:28.695Z,100975.16
2022-08-18T01:52:34.003Z,100971.63
2022-08-18T01:57:45.082Z,100962.78
2022-08-18T02:02:58.693Z,100960.09
2022-08-18T02:08:04.843Z,100939.81
2022-08-18T02:13:06.618Z,100939.00
2022-08-18T02:18:37.190Z,100939.88
2022-08-18T02:23:41.200Z,100924.00
2022-08-18T02:28:54.340Z,100931.97
2022-08-18T02:33:57.067Z,100915.28
2022-08-18T02:38:59.890Z,100920.69
2022-08-18T02:44:02.415Z,100918.97
2022-08-18T02:49:05.976Z,100904.81
2022-08-18T02:54:11.017Z,100904.81
2022-08-18T02:59:19.886Z,100919.94
2022-08-18T03:04:29.668Z,100930.56
2022-08-18T03:09:32.742Z,100929.72
2022-08-18T03:14:36.027Z,100934.09
2022-08-18T03:19:38.162Z,100948.31
2022-08-18T03:24:40.089Z,100945.63
2022-08-18T03:29:41.591Z,100947.38
2022-08-18T03:34:43.983Z,100956.25
2022-08-18T03:39:45.658Z,100966.03
2022-08-18T03:44:47.221Z,100965.22
2022-08-18T03:49:48.944Z,100968.72
2022-08-18T03:54:50.549Z,100976.56
2022-08-18T03:59:52.119Z,100982.72
2022-08-18T04:04:53.754Z,100980.94
2022-08-18T04:09:55.313Z,100984.44
2022-08-18T04:14:57.073Z,100988.00
2022-08-18T04:19:58.620Z,100983.53
2022-08-18T04:25:03.539Z,100980.88
2022-08-18T04:30:06.721Z,100980.84
2022-08-18T04:35:12.389Z,100987.03
2022-08-18T04:40:15.674Z,100991.50
2022-08-18T04:45:17.463Z,100990.63
2022-08-18T04:50:19.338Z,100998.59
2022-08-18T04:55:20.900Z,100988.88
2022-08-18T05:00:22.421Z,100994.09
2022-08-18T05:05:24.414Z,101001.19
2022-08-18T05:10:25.934Z,101009.16
2022-08-18T05:15:27.672Z,101005.53
2022-08-18T05:20:29.237Z,101006.44
2022-08-18T05:25:31.655Z,101004.66
2022-08-18T05:30:33.392Z,101000.22
2022-08-18T05:35:41.312Z,101000.19
2022-08-18T05:40:46.142Z,101005.38
2022-08-18T05:45:50.519Z,101016.66
2022-08-18T05:50:52.122Z,101022.00
2022-08-18T05:56:22.522Z,101010.53
2022-08-18T06:01:39.368Z,101006.94
2022-08-18T06:06:47.348Z,101006.06
2022-08-18T06:11:50.391Z,101021.84
2022-08-18T06:17:36.576Z,101026.25
2022-08-18T06:22:48.203Z,101020.94
2022-08-18T06:28:15.825Z,101025.25
2022-08-18T06:33:34.144Z,101029.59
2022-08-18T06:38:45.990Z,101032.06
2022-08-18T06:44:08.645Z,101047.84
2022-08-18T06:49:14.199Z,101036.38
2022-08-18T06:54:27.719Z,101037.88
2022-08-18T06:59:34.445Z,101042.31
2022-08-18T07:04:43.284Z,101041.38
2022-08-18T07:09:45.353Z,101057.16
2022-08-18T07:14:59.340Z,101058.00
2022-08-18T07:20:10.455Z,101066.66
2022-08-18T07:25:22.693Z,101075.53
2022-08-18T07:30:24.772Z,101075.50
2022-08-18T07:35:59.401Z,101084.22
2022-08-18T07:41:14.909Z,101091.25
2022-08-18T07:46:43.808Z,101088.66
2022-08-18T07:51:59.537Z,101102.66
2022-08-18T07:57:20.059Z,101095.34
2022-08-18T08:02:46.302Z,101096.81
2022-08-18T08:08:03.712Z,101098.06
2022-08-18T08:13:26.015Z,101086.91
2022-08-18T08:19:03.932Z,101093.94
2022-08-18T08:24:24.051Z,101108.31
2022-08-18T08:29:41.375Z,101104.59
2022-08-18T08:34:54.164Z,101103.72
2022-08-18T08:40:02.958Z,101107.13
2022-08-18T08:45:10.525Z,101109.53
2022-08-18T08:50:18.852Z,101109.28
2022-08-18T08:55:25.942Z,101106.00
2022-08-18T09:00:28.915Z,101110.91
2022-08-18T09:05:56.610Z,101113.66
2022-08-18T09:11:20.243Z,101112.03
2022-08-18T09:16:48.090Z,101113.22
2022-08-18T09:22:00.769Z,101112.81
2022-08-18T09:27:02.255Z,101109.19
2022-08-18T09:32:18.763Z,101115.06
2022-08-18T09:37:38.413Z,101117.31
2022-08-18T09:42:54.665Z,101123.09
2022-08-18T09:48:28.129Z,101115.81
2022-08-18T09:54:07.934Z,101121.94
2022-08-18T09:59:11.045Z,101122.94
2022-08-18T10:04:16.416Z,101124.97
2022-08-18T10:09:50.589Z,101127.38
2022-08-18T10:21:09.038Z,101135.59
2022-08-18T10:26:37.654Z,101132.25
2022-08-18T10:31:54.955Z,101144.13
2022-08-18T10:37:00.422Z,101137.97
2022-08-18T10:42:17.835Z,101140.66
2022-08-18T10:47:33.582Z,101136.25
2022-08-18T10:53:24.105Z,101137.59
2022-08-18T10:58:50.914Z,101139.91
2022-08-18T11:04:33.905Z,101143.59
2022-08-18T11:09:41.519Z,101140.34
2022-08-18T11:15:21.932Z,101150.69
2022-08-18T11:20:31.950Z,101156.84
2022-08-18T11:25:38.173Z,101169.09
2022-08-18T11:30:43.881Z,101163.19
2022-08-18T11:35:59.442Z,101163.47
2022-08-18T11:41:25.557Z,101156.84
2022-08-18T11:46:52.099Z,101153.44
2022-08-18T11:52:14.678Z,101158.09
2022-08-18T11:57:29.467Z,101161.19
2022-08-18T12:02:31.018Z,101161.00
2022-08-18T12:07:37.212Z,101152.44
2022-08-18T12:12:52.124Z,101162.94
2022-08-18T12:17:55.057Z,101153.44
2022-08-18T12:22:57.337Z,101159.78
2022-08-18T12:27:58.865Z,101158.25
2022-08-18T12:38:23.511Z,101127.00
2022-08-18T12:43:25.730Z,101124.38
2022-08-18T12:48:34.192Z,101125.75
2022-08-18T12:59:04.496Z,101137.81
2022-08-18T13:04:13.299Z,101146.75
2022-08-18T13:09:16.686Z,101141.66
2022-08-18T13:14:37.465Z,101150.25
2022-08-18T13:19:44.847Z,101154.63
2022-08-18T13:24:46.382Z,101139.22
2022-08-18T13:29:48.309Z,101138.50
2022-08-18T13:34:52.787Z,101134.00
2022-08-18T13:39:59.229Z,101132.19
2022-08-18T13:45:25.350Z,101146.97
2022-08-18T13:50:29.783Z,101157.97
2022-08-18T13:55:31.629Z,101152.09
2022-08-18T14:00:34.245Z,101143.94
2022-08-18T14:05:51.489Z,101147.41
2022-08-18T14:10:58.060Z,101159.69
2022-08-18T14:16:01.159Z,101173.47
2022-08-18T14:21:23.543Z,101173.66
2022-08-18T14:26:43.714Z,101177.88
2022-08-18T14:31:45.898Z,101172.81
2022-08-18T14:36:48.629Z,101172.25
2022-08-18T14:41:55.789Z,101164.59
2022-08-18T14:46:57.772Z,101160.44
2022-08-18T14:52:01.136Z,101153.19
2022-08-18T14:57:05.323Z,101169.13
2022-08-18T15:02:13.322Z,101173.66
2022-08-18T15:07:15.165Z,101166.56
2022-08-18T15:12:25.453Z,101177.28
2022-08-18T15:17:27.438Z,101168.19
2022-08-18T15:22:49.559Z,101171.00
2022-08-18T15:27:52.447Z,101171.44
2022-08-18T15:32:54.468Z,101177.19
2022-08-18T15:37:56.605Z,101175.66
2022-08-18T15:43:03.339Z,101167.88
2022-08-18T15:48:05.072Z,101174.88
2022-08-18T15:53:08.035Z,101168.84
2022-08-18T15:58:12.272Z,101159.38
2022-08-18T16:03:16.231Z,101159.00
2022-08-18T16:08:19.389Z,101155.59
2022-08-18T16:13:21.759Z,101149.78
2022-08-18T16:18:23.300Z,101152.63
2022-08-18T16:23:24.888Z,101141.84
2022-08-18T16:28:34.553Z,101148.59
2022-08-18T16:33:36.668Z,101153.56
2022-08-18T16:38:38.811Z,101152.94
2022-08-18T16:43:44.331Z,101138.88
2022-08-18T16:48:45.960Z,101139.16
2022-08-18T16:53:49.542Z,101147.56
2022-08-18T16:59:10.148Z,101154.94
2022-08-18T17:04:20.375Z,101160.72
2022-08-18T17:09:22.940Z,101171.59
2022-08-18T17:20:41.757Z,101175.06
2022-08-18T17:25:43.846Z,101177.63
2022-08-18T17:30:51.684Z,101172.44
2022-08-18T17:35:56.838Z,101186.25
2022-08-18T17:40:58.616Z,101181.44
2022-08-18T17:46:09.183Z,101178.72
2022-08-18T17:51:34.450Z,101180.84
2022-08-18T17:56:45.604Z,101175.91
2022-08-18T18:01:47.289Z,101169.38
2022-08-18T18:06:49.647Z,101171.56
2022-08-18T18:11:51.267Z,101183.25
2022-08-18T18:17:14.303Z,101180.69
2022-08-18T18:22:21.105Z,101174.69
2022-08-18T18:27:41.846Z,101174.69
2022-08-18T18:32:43.307Z,101173.47
2022-08-18T18:38:10.134Z,101163.94
2022-08-18T18:43:35.688Z,101158.84
2022-08-18T18:48:55.852Z,101158.91
2022-08-18T18:54:09.431Z,101170.69
2022-08-18T18:59:25.528Z,101155.84
2022-08-18T19:04:43.554Z,101160.47
2022-08-18T19:10:06.349Z,57128.34
2022-08-18T19:15:14.694Z,57128.34
2022-08-18T19:20:20.880Z,57128.34
2022-08-18T19:25:29.493Z,57128.34
2022-08-18T19:30:34.161Z,57128.34
2022-08-18T19:35:58.722Z,57128.34
2022-08-18T19:41:00.712Z,57128.34
2022-08-18T19:46:28.331Z,57128.34
2022-08-18T19:51:36.129Z,57128.34
2022-08-18T19:56:51.893Z,57128.34
2022-08-18T20:02:05.016Z,57128.34
2022-08-18T20:07:25.139Z,57128.34
2022-08-18T20:12:59.375Z,57128.34
2022-08-18T20:18:06.317Z,57128.34
2022-08-18T20:23:31.978Z,57128.34
2022-08-18T20:28:40.731Z,57128.34
2022-08-18T20:34:08.412Z,57128.34
2022-08-18T20:39:33.744Z,57128.34
2022-08-18T20:44:52.175Z,57128.34
2022-08-18T20:50:33.499Z,57128.34
2022-08-18T20:55:38.371Z,57128.34
2022-08-18T21:00:44.252Z,57128.34
2022-08-18T21:05:48.187Z,57128.34
2022-08-18T21:11:07.667Z,57128.34
2022-08-18T21:16:37.683Z,57128.34
2022-08-18T21:22:01.396Z,57128.34
2022-08-18T21:27:20.350Z,57128.34
2022-08-18T21:32:31.854Z,57128.34
2022-08-18T21:37:36.309Z,57128.34
2022-08-18T21:42:45.491Z,57128.34
2022-08-18T21:47:51.166Z,57128.34
2022-08-18T21:52:56.807Z,57128.34
2022-08-18T21:58:07.164Z,57128.34
2022-08-18T22:03:28.080Z,57128.34
2022-08-18T22:08:33.390Z,57128.34
2022-08-18T22:13:58.650Z,57128.34
2022-08-18T22:19:22.442Z,57128.34
2022-08-18T22:24:34.863Z,57128.34
2022-08-18T22:29:46.294Z,57128.34
2022-08-18T22:34:53.214Z,57128.34
2022-08-18T22:39:59.188Z,57128.34
2022-08-18T22:45:04.794Z,57128.34
2022-08-18T22:50:07.573Z,57128.34
2022-08-18T22:55:11.638Z,57128.34
2022-08-18T23:00:17.480Z,57128.34
2022-08-18T23:05:19.707Z,57128.34
2022-08-18T23:10:21.555Z,57128.34
2022-08-18T23:15:41.588Z,57128.34
2022-08-18T23:20:43.216Z,57128.34
2022-08-18T23:25:45.370Z,57128.34
2022-08-18T23:30:49.287Z,57128.34
2022-08-18T23:35:52.264Z,57128.34
2022-08-18T23:40:53.923Z,57128.34
2022-08-18T23:45:57.286Z,57128.34
2022-08-18T23:51:03.085Z,57128.34
2022-08-18T23:56:06.055Z,57128.34
